Time;durP1;ratioP1;P1;durP2;ratioP2;P2;SDS_P1;SDS_P2;PMS_P1;PMS_P2;Temp;Humidity;BMP_temperature;BMP_pressure;BME280_temperature;BME280_humidity;BME280_pressure;Samples;Min_cycle;Max_cycle;Signal;HPM_P1;HPM_P2
2023/12/03 00:01:37;;;;;;;35.78;24.85;;;;;;;2.76;74.65;101820.44;5077230;28;20036;-65
2023/12/03 00:04:02;;;;;;;36.10;24.38;;;;;;;2.76;74.36;101825.94;5085956;28;20073;-66
2023/12/03 00:06:31;;;;;;;34.30;23.77;;;;;;;2.76;74.78;101820.44;5090135;28;20054;-65
2023/12/03 00:08:58;;;;;;;37.17;25.88;;;;;;;2.75;74.23;101821.47;5088976;28;20024;-64
2023/12/03 00:11:23;;;;;;;35.13;23.52;;;;;;;2.77;74.83;101814.78;5091469;28;20036;-64
2023/12/03 00:13:48;;;;;;;38.17;25.17;;;;;;;2.78;74.06;101819.22;5089932;28;20085;-64
2023/12/03 00:16:14;;;;;;;40.22;26.15;;;;;;;2.82;74.34;101814.22;5089368;28;20109;-64
2023/12/03 00:18:39;;;;;;;34.85;24.00;;;;;;;2.81;74.36;101815.28;5089718;28;20127;-65
2023/12/03 00:21:05;;;;;;;35.95;24.92;;;;;;;2.82;74.94;101819.72;5068997;28;20021;-63
2023/12/03 00:23:30;;;;;;;34.80;23.98;;;;;;;2.83;74.48;101824.16;5076394;28;20024;-63
2023/12/03 00:25:56;;;;;;;37.38;24.05;;;;;;;2.80;74.65;101824.53;5074932;28;20127;-63
2023/12/03 00:28:21;;;;;;;34.47;23.48;;;;;;;2.85;74.34;101819.38;5077216;28;20028;-64
2023/12/03 00:30:46;;;;;;;36.50;23.95;;;;;;;2.85;74.92;101816.63;5074895;28;20111;-63
2023/12/03 00:33:12;;;;;;;33.55;22.85;;;;;;;2.87;74.71;101826.41;5069807;28;20178;-63
2023/12/03 00:35:37;;;;;;;34.10;23.85;;;;;;;2.89;74.81;101831.69;5071066;28;20029;-64
2023/12/03 00:38:02;;;;;;;34.95;23.10;;;;;;;2.88;74.99;101828.09;5071946;28;20028;-63
2023/12/03 00:40:27;;;;;;;34.60;23.00;;;;;;;2.88;74.29;101828.09;5082072;28;20032;-62
2023/12/03 00:42:54;;;;;;;32.13;23.20;;;;;;;2.90;74.93;101830.66;5073423;28;20029;-63
2023/12/03 00:45:22;;;;;;;31.38;23.10;;;;;;;2.88;74.67;101833.56;5070773;28;20031;-63
2023/12/03 00:47:47;;;;;;;32.45;22.75;;;;;;;2.89;74.85;101831.69;5079653;28;20032;-64
2023/12/03 00:50:13;;;;;;;31.95;22.45;;;;;;;2.92;75.06;101828.59;5070907;28;20035;-63
2023/12/03 00:52:39;;;;;;;44.45;29.85;;;;;;;2.91;75.08;101833.22;5084829;28;20024;-63
2023/12/03 00:55:04;;;;;;;63.83;37.60;;;;;;;2.91;74.44;101833.22;5088603;28;20055;-63
2023/12/03 00:57:30;;;;;;;65.85;41.47;;;;;;;2.91;74.69;101833.22;5081731;28;20020;-63
2023/12/03 00:59:56;;;;;;;54.70;36.53;;;;;;;2.95;74.46;101833.72;5082231;28;20043;-64
2023/12/03 01:02:21;;;;;;;51.00;32.20;;;;;;;2.94;74.59;101835.59;5083087;28;20115;-64
2023/12/03 01:04:47;;;;;;;38.05;26.30;;;;;;;2.94;74.94;101832.00;5070073;28;20499;-63
2023/12/03 01:07:12;;;;;;;39.42;27.48;;;;;;;2.95;74.40;101839.22;5081381;28;20043;-63
2023/12/03 01:09:37;;;;;;;37.78;26.65;;;;;;;2.95;74.37;101839.22;5076517;28;20773;-63
2023/12/03 01:12:03;;;;;;;38.10;27.08;;;;;;;2.95;74.75;101844.69;5082376;28;20033;-63
2023/12/03 01:14:32;;;;;;;38.70;26.25;;;;;;;2.95;74.62;101844.69;5078115;28;20028;-63
2023/12/03 01:16:57;;;;;;;35.00;24.60;;;;;;;2.94;74.48;101843.81;5078268;28;20044;-63
2023/12/03 01:19:22;;;;;;;35.72;25.08;;;;;;;2.93;74.58;101850.34;5087137;28;20801;-63
2023/12/03 01:21:50;;;;;;;39.75;26.23;;;;;;;2.95;74.03;101845.53;5072706;28;20025;-63
2023/12/03 01:24:16;;;;;;;33.15;22.83;;;;;;;2.94;74.46;101853.94;5071878;28;20465;-63
2023/12/03 01:26:41;;;;;;;33.95;23.67;;;;;;;2.96;74.43;101851.88;5087230;28;20075;-63
2023/12/03 01:29:06;;;;;;;35.42;24.40;;;;;;;2.98;74.37;101849.81;5082418;28;20049;-63
2023/12/03 01:31:32;;;;;;;36.83;24.50;;;;;;;2.94;73.88;101848.44;5083762;28;20047;-63
2023/12/03 01:33:57;;;;;;;34.30;23.63;;;;;;;2.97;73.80;101852.72;5072188;28;20041;-63
2023/12/03 01:36:22;;;;;;;35.08;24.15;;;;;;;2.98;74.13;101854.44;5074282;28;20020;-63
2023/12/03 01:38:48;;;;;;;34.22;24.15;;;;;;;2.99;73.56;101856.13;5091752;28;20024;-63
2023/12/03 01:41:16;;;;;;;32.10;23.48;;;;;;;2.98;73.71;101857.19;5092009;28;20468;-64
2023/12/03 01:43:49;;;;;;;33.70;23.55;;;;;;;2.97;73.78;101861.81;5086169;28;20476;-63
2023/12/03 01:46:21;;;;;;;36.42;23.48;;;;;;;2.99;73.29;101859.75;5074183;28;20024;-64
2023/12/03 01:48:47;;;;;;;34.43;24.33;;;;;;;2.99;73.36;101851.53;5084368;28;20031;-63
2023/12/03 01:51:13;;;;;;;32.53;23.58;;;;;;;2.94;73.78;101854.78;5082183;28;20032;-63
2023/12/03 01:53:40;;;;;;;36.47;23.17;;;;;;;2.96;73.81;101862.84;5071941;28;20040;-63
2023/12/03 01:56:06;;;;;;;31.92;23.17;;;;;;;2.95;73.37;101859.25;5071778;28;20128;-64
2023/12/03 01:58:32;;;;;;;39.28;25.23;;;;;;;2.95;73.39;101862.00;5070143;28;20078;-63
2023/12/03 02:00:57;;;;;;;41.88;26.27;;;;;;;2.98;73.43;101859.91;5079268;28;20036;-64
2023/12/03 02:03:26;;;;;;;38.10;26.25;;;;;;;2.97;73.07;101864.56;5088137;28;20064;-64
2023/12/03 02:06:10;;;;;;;39.22;25.85;;;;;;;3.00;73.13;101858.72;5085824;28;20035;-63
2023/12/03 02:08:35;;;;;;;44.63;27.73;;;;;;;3.00;73.37;101866.94;5078017;28;20037;-64
2023/12/03 02:11:03;;;;;;;44.45;28.20;;;;;;;2.99;72.69;101870.72;5072052;28;20601;-63
2023/12/03 02:13:31;;;;;;;42.22;27.50;;;;;;;3.00;73.47;101863.34;5084876;28;20377;-63
2023/12/03 02:15:57;;;;;;;44.55;29.25;;;;;;;3.02;73.35;101862.13;5086006;28;20027;-63
2023/12/03 02:18:22;;;;;;;42.80;28.15;;;;;;;2.99;73.20;101870.72;5071590;28;20460;-64
2023/12/03 02:20:47;;;;;;;41.33;28.02;;;;;;;3.01;73.05;101865.06;5075590;28;20043;-64
2023/12/03 02:23:14;;;;;;;42.40;27.20;;;;;;;3.04;72.80;101873.78;5091844;28;20036;-63
2023/12/03 02:25:41;;;;;;;44.33;27.85;;;;;;;3.01;73.04;101876.88;5075594;28;20029;-64
2023/12/03 02:28:06;;;;;;;42.90;28.02;;;;;;;3.00;72.77;101874.31;5070827;28;20384;-64
2023/12/03 02:30:31;;;;;;;41.78;28.35;;;;;;;3.00;73.16;101874.31;5071562;28;20040;-63
2023/12/03 02:32:57;;;;;;;41.70;26.90;;;;;;;2.99;73.20;101878.97;5074583;28;20042;-63
2023/12/03 02:35:22;;;;;;;37.70;25.88;;;;;;;2.97;73.38;101871.94;5074894;28;20425;-63
2023/12/03 02:37:47;;;;;;;37.03;26.23;;;;;;;2.99;72.93;101878.97;5076385;28;20032;-63
2023/12/03 02:40:12;;;;;;;35.78;24.45;;;;;;;2.98;73.17;101874.47;5074614;28;20037;-63
2023/12/03 02:42:38;;;;;;;37.08;24.95;;;;;;;2.97;72.74;101872.78;5071204;28;20046;-63
2023/12/03 02:45:03;;;;;;;36.20;25.25;;;;;;;3.01;72.78;101871.38;5071774;28;20032;-64
2023/12/03 02:47:29;;;;;;;39.13;24.67;;;;;;;3.03;72.92;101880.31;5082125;28;20389;-63
2023/12/03 02:49:54;;;;;;;38.25;25.25;;;;;;;3.04;72.89;101871.03;5075185;28;20456;-64
2023/12/03 02:52:19;;;;;;;37.75;23.98;;;;;;;3.04;72.79;101876.53;5083105;28;20115;-63
2023/12/03 02:54:44;;;;;;;35.22;22.67;;;;;;;3.04;72.61;101881.16;5074856;28;20456;-63
2023/12/03 02:57:10;;;;;;;38.47;24.40;;;;;;;3.01;72.59;101871.38;5090064;28;20032;-63
2023/12/03 02:59:38;;;;;;;38.63;24.50;;;;;;;2.97;72.93;101878.25;5084618;28;20024;-64
2023/12/03 03:02:03;;;;;;;37.55;24.00;;;;;;;3.00;72.76;101875.16;5090548;28;20027;-63
2023/12/03 03:04:29;;;;;;;37.38;24.70;;;;;;;2.99;72.50;101876.22;5091107;28;20115;-63
2023/12/03 03:06:54;;;;;;;37.20;22.70;;;;;;;3.01;72.87;101870.53;5091338;28;20060;-64
2023/12/03 03:09:19;;;;;;;38.35;24.52;;;;;;;3.00;72.52;101875.16;5074225;28;20036;-64
2023/12/03 03:11:44;;;;;;;35.38;23.33;;;;;;;2.96;72.66;101871.06;5082176;28;20390;-64
2023/12/03 03:14:10;;;;;;;37.83;23.42;;;;;;;2.97;72.24;101874.69;5083762;28;20081;-63
2023/12/03 03:16:35;;;;;;;34.45;23.13;;;;;;;2.88;72.29;101871.97;5083304;28;20028;-62
2023/12/03 03:19:00;;;;;;;35.90;23.40;;;;;;;2.89;72.90;101879.16;5072299;28;20036;-63
2023/12/03 03:21:26;;;;;;;36.60;24.00;;;;;;;2.89;72.57;101873.66;5071117;28;20033;-63
2023/12/03 03:23:57;;;;;;;37.03;24.30;;;;;;;2.87;73.12;101874.88;5070590;28;20016;-63
2023/12/03 03:26:22;;;;;;;36.30;24.65;;;;;;;2.88;72.91;101884.81;5072716;28;20097;-63
2023/12/03 03:28:47;;;;;;;38.10;24.55;;;;;;;2.87;72.72;101877.59;5090588;28;20028;-63
2023/12/03 03:31:13;;;;;;;35.80;23.40;;;;;;;2.87;72.86;101881.22;5090307;28;20032;-62
2023/12/03 03:33:39;;;;;;;39.13;24.40;;;;;;;2.85;72.90;101880.53;5078478;28;20040;-63
2023/12/03 03:36:05;;;;;;;37.25;24.42;;;;;;;2.87;72.66;101878.50;5079957;28;20020;-63
2023/12/03 03:38:30;;;;;;;38.05;23.70;;;;;;;2.83;72.77;101868.91;5073969;28;20483;-63
2023/12/03 03:40:55;;;;;;;36.35;23.67;;;;;;;2.86;72.72;101874.00;5074139;28;20027;-64
2023/12/03 03:43:21;;;;;;;37.40;24.40;;;;;;;2.83;72.22;101874.41;5073422;28;20040;-63
2023/12/03 03:45:49;;;;;;;38.03;23.95;;;;;;;2.84;72.16;101880.72;5089754;28;20073;-63
2023/12/03 03:48:14;;;;;;;35.42;23.20;;;;;;;2.83;71.93;101882.63;5091168;28;20027;-64
2023/12/03 03:50:39;;;;;;;39.03;25.13;;;;;;;2.81;72.46;101875.59;5093901;28;20051;-63
2023/12/03 03:53:05;;;;;;;37.83;25.27;;;;;;;2.80;72.44;101882.97;5092901;28;20039;-63
2023/12/03 03:55:30;;;;;;;35.65;24.00;;;;;;;2.79;71.71;101885.88;5094696;28;20063;-63
2023/12/03 03:57:55;;;;;;;39.10;23.48;;;;;;;2.75;71.79;101888.13;5093981;28;20418;-63
2023/12/03 04:00:21;;;;;;;35.85;23.50;;;;;;;2.75;71.95;101881.78;5092968;28;20043;-64
2023/12/03 04:02:46;;;;;;;39.00;24.00;;;;;;;2.76;71.79;101897.22;5092582;28;20024;-63
2023/12/03 04:05:12;;;;;;;37.70;24.75;;;;;;;2.74;72.22;101891.03;5076456;28;20383;-63
2023/12/03 04:07:38;;;;;;;37.63;24.00;;;;;;;2.73;71.77;101894.81;5087656;28;20498;-63
2023/12/03 04:10:05;;;;;;;37.00;24.50;;;;;;;2.70;72.43;101893.28;5089741;28;20100;-63
2023/12/03 04:12:30;;;;;;;35.42;22.60;;;;;;;2.72;71.46;101887.63;5093836;28;20016;-63
2023/12/03 04:14:55;;;;;;;36.08;23.05;;;;;;;2.72;71.67;101888.47;5086618;28;20601;-63
2023/12/03 04:17:20;;;;;;;37.88;23.45;;;;;;;2.66;71.85;101894.66;5077666;28;20036;-63
2023/12/03 04:19:46;;;;;;;37.63;23.40;;;;;;;2.64;72.07;101897.59;5079962;28;20111;-63
2023/12/03 04:22:11;;;;;;;37.70;24.65;;;;;;;2.63;71.86;101900.47;5078373;28;20483;-63
2023/12/03 04:24:36;;;;;;;37.92;23.00;;;;;;;2.65;72.00;101903.91;5074010;28;20396;-63
2023/12/03 04:27:02;;;;;;;35.70;23.38;;;;;;;2.60;72.17;101900.84;5073133;28;20437;-63
2023/12/03 04:29:27;;;;;;;37.70;24.33;;;;;;;2.60;72.07;101901.72;5074921;28;20082;-62
2023/12/03 04:31:52;;;;;;;36.10;23.30;;;;;;;2.59;71.51;101907.34;5076545;28;20088;-62
2023/12/03 04:34:18;;;;;;;35.60;24.35;;;;;;;2.57;71.60;101896.56;5092382;28;20055;-62
2023/12/03 04:36:46;;;;;;;38.10;24.38;;;;;;;2.54;71.60;101902.38;5082456;28;20105;-63
2023/12/03 04:39:11;;;;;;;36.78;24.23;;;;;;;2.55;71.87;101903.25;5073160;28;20074;-63
2023/12/03 04:41:37;;;;;;;37.60;23.23;;;;;;;2.45;71.62;101908.94;5072302;28;20032;-63
2023/12/03 04:44:04;;;;;;;36.50;23.80;;;;;;;2.43;72.18;101908.22;5072822;28;20066;-63
2023/12/03 04:46:29;;;;;;;38.65;24.73;;;;;;;2.33;71.41;101911.16;5084854;28;20037;-63
2023/12/03 04:48:55;;;;;;;38.53;23.67;;;;;;;2.40;71.89;101908.59;5071791;28;20047;-63
2023/12/03 04:51:20;;;;;;;36.35;22.95;;;;;;;2.39;71.66;101915.09;5073128;28;20028;-63
2023/12/03 04:53:45;;;;;;;34.70;23.58;;;;;;;2.32;71.78;101901.25;5079424;28;20049;-63
2023/12/03 04:56:11;;;;;;;36.15;23.08;;;;;;;2.29;72.05;101903.47;5080289;28;20032;-63
2023/12/03 04:58:36;;;;;;;38.88;24.15;;;;;;;2.27;72.02;101911.00;5078379;28;20423;-63
2023/12/03 05:01:02;;;;;;;37.40;23.67;;;;;;;2.25;71.82;101915.81;5081611;28;20758;-63
2023/12/03 05:03:27;;;;;;;37.75;24.05;;;;;;;2.24;71.48;101909.47;5085286;28;20036;-63
2023/12/03 05:05:55;;;;;;;37.65;23.73;;;;;;;2.23;71.13;101905.00;5076263;28;20025;-64
2023/12/03 05:08:20;;;;;;;42.72;26.70;;;;;;;2.20;71.69;101914.44;5078396;28;20033;-63
2023/12/03 05:10:46;;;;;;;37.70;24.98;;;;;;;2.25;71.72;101918.56;5083199;28;20030;-63
2023/12/03 05:13:11;;;;;;;38.40;24.52;;;;;;;2.20;71.28;101921.78;5090502;28;20388;-63
2023/12/03 05:15:36;;;;;;;44.92;25.60;;;;;;;2.15;71.44;101930.53;5080735;28;20368;-63
2023/12/03 05:18:02;;;;;;;41.13;26.73;;;;;;;2.10;71.27;101921.13;5076010;28;20472;-63
2023/12/03 05:20:27;;;;;;;44.90;26.85;;;;;;;2.09;71.50;101925.75;5087470;28;20079;-63
2023/12/03 05:22:53;;;;;;;44.47;27.33;;;;;;;2.11;71.88;101923.66;5078922;28;20425;-63
2023/12/03 05:25:19;;;;;;;47.22;28.10;;;;;;;2.10;71.05;101930.19;5080102;28;20081;-64
2023/12/03 05:27:45;;;;;;;46.72;28.77;;;;;;;2.10;71.64;101929.34;5085961;28;20059;-64
2023/12/03 05:30:12;;;;;;;44.83;27.50;;;;;;;2.05;71.63;101924.38;5087806;28;20071;-63
2023/12/03 05:32:39;;;;;;;44.65;27.00;;;;;;;2.08;70.74;101917.69;5078282;28;20074;-63
2023/12/03 05:35:05;;;;;;;42.47;27.20;;;;;;;2.06;71.28;101917.88;5078032;28;20043;-63
2023/12/03 05:37:31;;;;;;;49.13;27.48;;;;;;;2.00;70.80;101920.41;5071015;28;20025;-63
2023/12/03 05:39:56;;;;;;;47.38;28.35;;;;;;;1.98;70.49;101920.59;5072008;28;20032;-63
2023/12/03 05:42:21;;;;;;;44.90;26.30;;;;;;;1.97;70.83;101927.13;5072134;28;20524;-63
2023/12/03 05:44:47;;;;;;;45.65;26.67;;;;;;;2.01;70.81;101925.75;5075506;28;20051;-63
2023/12/03 05:47:12;;;;;;;48.50;27.65;;;;;;;1.94;71.14;101939.25;5088473;28;20024;-63
2023/12/03 05:49:40;;;;;;;47.05;26.58;;;;;;;1.92;71.07;101935.81;5078707;28;20123;-63
2023/12/03 05:52:06;;;;;;;44.03;25.60;;;;;;;1.93;71.32;101926.59;5078715;28;20360;-63
2023/12/03 05:54:31;;;;;;;45.92;26.30;;;;;;;1.92;70.90;101934.97;5081328;28;20039;-63
2023/12/03 05:56:56;;;;;;;46.05;26.70;;;;;;;1.90;70.46;101934.28;5070947;28;20029;-62
2023/12/03 05:59:26;;;;;;;43.53;26.00;;;;;;;1.90;70.44;101937.03;5071099;28;20517;-63
2023/12/03 06:01:51;;;;;;;42.17;26.00;;;;;;;1.88;70.99;101937.19;5077209;28;20027;-63
2023/12/03 06:04:17;;;;;;;45.00;26.23;;;;;;;1.88;70.70;101939.06;5076721;28;20055;-62
2023/12/03 06:06:43;;;;;;;43.72;25.10;;;;;;;1.88;70.32;101944.53;5074562;28;20055;-64
2023/12/03 06:09:09;;;;;;;43.28;25.40;;;;;;;1.88;70.27;101939.91;5075076;28;20023;-63
2023/12/03 06:11:35;;;;;;;41.88;25.15;;;;;;;1.83;70.14;101949.66;5075750;28;20035;-63
2023/12/03 06:14:04;;;;;;;44.10;24.65;;;;;;;1.76;70.25;101946.75;5086897;28;20542;-63
2023/12/03 06:16:30;;;;;;;42.25;26.33;;;;;;;1.78;70.62;101949.34;5085124;28;20066;-63
2023/12/03 06:18:55;;;;;;;41.17;24.42;;;;;;;1.75;70.02;101947.78;5090602;28;20055;-63
2023/12/03 06:21:22;;;;;;;43.03;25.35;;;;;;;1.75;70.50;101956.00;5089701;28;20069;-63
2023/12/03 06:23:47;;;;;;;41.58;25.05;;;;;;;1.72;70.14;101962.66;5091735;28;20528;-63
2023/12/03 06:26:13;;;;;;;42.58;24.20;;;;;;;1.80;70.47;101958.22;5082453;28;20025;-63
2023/12/03 06:28:38;;;;;;;40.67;24.20;;;;;;;1.75;70.21;101966.09;5080795;28;20043;-63
2023/12/03 06:31:06;;;;;;;41.10;23.92;;;;;;;1.79;69.91;101971.06;5074399;28;20124;-63
2023/12/03 06:33:32;;;;;;;43.17;24.33;;;;;;;1.77;70.80;101953.06;5083775;28;20041;-63
2023/12/03 06:35:57;;;;;;;41.30;25.25;;;;;;;1.70;70.53;101948.28;5083956;28;20788;-63
2023/12/03 06:38:23;;;;;;;42.60;25.80;;;;;;;1.69;70.93;101949.31;5075685;28;20108;-63
2023/12/03 06:40:48;;;;;;;43.75;25.45;;;;;;;1.65;70.05;101950.69;5090410;28;20036;-63
2023/12/03 06:43:14;;;;;;;41.10;23.58;;;;;;;1.64;70.86;101943.47;5088584;28;20028;-63
2023/12/03 06:45:39;;;;;;;43.70;25.08;;;;;;;1.67;70.91;101945.88;5071010;28;20021;-63
2023/12/03 06:48:05;;;;;;;44.70;25.50;;;;;;;1.67;70.84;101945.03;5070385;28;20036;-63
2023/12/03 06:50:31;;;;;;;41.08;24.55;;;;;;;1.71;70.11;101951.88;5076201;28;20028;-63
2023/12/03 06:52:56;;;;;;;41.00;23.20;;;;;;;1.69;70.13;101942.97;5080761;28;20023;-63
2023/12/03 06:55:21;;;;;;;43.40;25.10;;;;;;;1.64;70.63;101946.22;5076250;28;20036;-63
2023/12/03 06:57:47;;;;;;;41.13;24.10;;;;;;;1.65;70.58;101950.69;5070749;28;20375;-63
2023/12/03 07:00:16;;;;;;;39.58;23.40;;;;;;;1.68;69.94;101944.00;5069850;28;20025;-63
2023/12/03 07:02:41;;;;;;;42.67;24.60;;;;;;;1.68;70.63;101946.72;5076439;28;20020;-63
2023/12/03 07:05:07;;;;;;;39.25;25.00;;;;;;;1.67;69.87;101943.16;5088946;28;20043;-63
2023/12/03 07:07:32;;;;;;;41.78;25.02;;;;;;;1.67;70.07;101948.63;5082656;28;20032;-63
2023/12/03 07:09:58;;;;;;;45.10;24.55;;;;;;;1.69;69.73;101945.69;5069547;28;20024;-63
2023/12/03 07:12:26;;;;;;;39.22;24.85;;;;;;;1.70;69.92;101944.69;5081588;28;20031;-63
2023/12/03 07:14:51;;;;;;;41.78;23.70;;;;;;;1.63;69.35;101951.84;5091324;28;20053;-63
2023/12/03 07:17:16;;;;;;;39.83;23.98;;;;;;;1.64;70.31;101948.09;5095156;28;20036;-63
2023/12/03 07:19:43;;;;;;;42.50;23.92;;;;;;;1.67;70.13;101956.81;5093188;28;20081;-63
2023/12/03 07:22:09;;;;;;;43.28;25.20;;;;;;;1.66;69.64;101957.84;5091690;28;20039;-63
2023/12/03 07:24:34;;;;;;;43.03;24.83;;;;;;;1.69;69.89;101963.00;5083035;28;20386;-63
2023/12/03 07:27:03;;;;;;;41.88;23.85;;;;;;;1.67;69.25;101959.56;5084403;28;20085;-63
2023/12/03 07:29:28;;;;;;;40.47;24.63;;;;;;;1.67;69.30;101965.03;5082363;28;20032;-63
2023/12/03 07:31:53;;;;;;;42.25;25.08;;;;;;;1.69;69.73;101965.75;5088433;28;20128;-62
2023/12/03 07:34:19;;;;;;;39.88;24.10;;;;;;;1.68;69.00;101965.88;5086622;28;20048;-63
2023/12/03 07:36:44;;;;;;;42.85;25.25;;;;;;;1.65;69.78;101972.56;5075461;28;20097;-63
2023/12/03 07:39:12;;;;;;;42.05;24.27;;;;;;;1.59;69.19;101962.28;5084733;28;20047;-65
2023/12/03 07:41:37;;;;;;;43.42;24.65;;;;;;;1.58;69.32;101976.16;5073498;28;20081;-63
2023/12/03 07:44:03;;;;;;;41.78;25.25;;;;;;;1.56;69.80;101968.09;5084586;28;20028;-63
2023/12/03 07:46:28;;;;;;;41.10;23.75;;;;;;;1.57;69.94;101979.88;5083543;28;20017;-63
2023/12/03 07:48:53;;;;;;;45.72;25.70;;;;;;;1.58;69.82;101971.53;5079529;28;20470;-62
2023/12/03 07:51:19;;;;;;;42.78;23.38;;;;;;;1.55;69.63;101974.59;5073479;28;20040;-63
2023/12/03 07:53:45;;;;;;;40.22;23.25;;;;;;;1.59;70.29;101965.03;5075732;28;20020;-62
2023/12/03 07:56:10;;;;;;;40.40;24.25;;;;;;;1.60;69.37;101972.19;5084740;28;20051;-63
2023/12/03 07:58:36;;;;;;;42.25;23.75;;;;;;;1.59;69.20;101972.38;5076122;28;20149;-62
2023/12/03 08:01:03;;;;;;;42.20;23.92;;;;;;;1.57;69.66;101971.66;5070122;28;20042;-63
2023/12/03 08:03:28;;;;;;;38.38;24.40;;;;;;;1.57;69.24;101966.19;5086953;28;20067;-65
2023/12/03 08:05:54;;;;;;;40.53;23.90;;;;;;;1.56;69.22;101967.22;5083317;28;20497;-65
2023/12/03 08:08:19;;;;;;;39.47;23.27;;;;;;;1.51;69.28;101975.94;5077613;28;20029;-66
2023/12/03 08:10:45;;;;;;;39.90;24.65;;;;;;;1.50;69.17;101976.97;5088172;28;20062;-63
2023/12/03 08:13:10;;;;;;;40.90;24.05;;;;;;;1.52;69.34;101977.66;5086804;28;20387;-64
2023/12/03 08:15:35;;;;;;;41.45;23.75;;;;;;;1.53;69.57;101982.09;5074802;28;20131;-63
2023/12/03 08:18:00;;;;;;;42.00;24.55;;;;;;;1.56;69.34;101987.25;5086919;28;20020;-63
2023/12/03 08:20:26;;;;;;;42.50;24.23;;;;;;;1.54;68.96;101981.09;5087456;28;20032;-64
2023/12/03 08:22:51;;;;;;;43.80;23.88;;;;;;;1.57;69.83;101988.09;5090983;28;20026;-62
2023/12/03 08:25:16;;;;;;;40.95;23.92;;;;;;;1.62;69.04;101985.72;5090045;28;20122;-61
2023/12/03 08:27:42;;;;;;;42.63;24.73;;;;;;;1.61;69.41;101994.94;5082972;28;20111;-73
2023/12/03 08:30:08;;;;;;;38.78;23.45;;;;;;;1.59;69.65;101988.78;5085429;28;20052;-63
2023/12/03 08:32:33;;;;;;;41.28;24.05;;;;;;;1.56;68.60;101989.97;5068985;28;20074;-64
2023/12/03 08:35:00;;;;;;;41.08;23.83;;;;;;;1.53;68.82;101998.50;5078327;28;20139;-65
2023/12/03 08:37:25;;;;;;;43.40;24.77;;;;;;;1.58;69.05;101995.31;5075327;28;20119;-63
2023/12/03 08:39:50;;;;;;;43.28;24.35;;;;;;;1.62;68.97;101994.78;5079679;28;20024;-65
2023/12/03 08:42:16;;;;;;;41.20;24.45;;;;;;;1.63;68.85;102001.97;5074909;28;20032;-63
2023/12/03 08:44:41;;;;;;;38.67;23.88;;;;;;;1.68;68.92;101998.72;5079891;28;20032;-62
2023/12/03 08:47:07;;;;;;;42.28;24.23;;;;;;;1.71;68.30;102004.72;5081826;28;20032;-63
2023/12/03 08:49:33;;;;;;;45.00;24.02;;;;;;;1.74;68.93;102013.66;5079883;28;20027;-62
2023/12/03 08:51:59;;;;;;;39.22;23.40;;;;;;;1.75;68.60;102009.88;5092645;28;20024;-63
2023/12/03 08:54:24;;;;;;;41.53;23.85;;;;;;;1.76;68.18;102012.44;5088400;28;20034;-62
2023/12/03 08:56:49;;;;;;;40.25;23.55;;;;;;;1.79;68.47;102008.53;5080998;28;20395;-63
2023/12/03 08:59:14;;;;;;;40.65;23.73;;;;;;;1.80;68.49;102011.06;5085178;28;20032;-67
2023/12/03 09:01:40;;;;;;;39.72;23.67;;;;;;;1.81;68.58;102015.56;5087788;28;20042;-66
2023/12/03 09:04:05;;;;;;;37.80;22.85;;;;;;;1.83;68.16;102013.50;5076013;28;20468;-66
2023/12/03 09:06:31;;;;;;;37.67;23.65;;;;;;;1.83;67.32;102018.97;5092655;28;20081;-68
2023/12/03 09:08:56;;;;;;;39.53;23.48;;;;;;;1.82;67.93;102019.16;5092137;28;20061;-66
2023/12/03 09:11:22;;;;;;;41.15;22.52;;;;;;;1.79;68.04;102016.72;5074339;28;20036;-67
2023/12/03 09:13:47;;;;;;;36.42;21.73;;;;;;;1.82;67.42;102016.41;5081591;28;20032;-64
2023/12/03 09:16:13;;;;;;;38.90;22.08;;;;;;;1.81;67.39;102025.63;5091210;28;20107;-66
2023/12/03 09:18:41;;;;;;;37.47;22.20;;;;;;;1.83;67.04;102018.09;5075997;28;20029;-65
2023/12/03 09:21:08;;;;;;;37.92;23.42;;;;;;;1.83;67.15;102018.97;5077050;28;20075;-66
2023/12/03 09:23:34;;;;;;;37.17;22.05;;;;;;;1.85;67.22;102018.81;5092712;28;20024;-65
2023/12/03 09:26:00;;;;;;;36.30;22.27;;;;;;;1.87;66.67;102019.50;5089201;28;20439;-66
2023/12/03 09:28:25;;;;;;;36.85;23.02;;;;;;;1.94;67.03;102023.28;5072001;28;20048;-66
2023/12/03 09:30:51;;;;;;;37.90;22.88;;;;;;;1.94;66.92;102026.00;5071245;28;20028;-67
2023/12/03 09:33:17;;;;;;;40.33;23.50;;;;;;;1.93;66.83;102027.03;5084479;28;20067;-67
2023/12/03 09:35:42;;;;;;;34.58;22.50;;;;;;;1.96;66.17;102026.69;5073048;28;20037;-66
2023/12/03 09:38:07;;;;;;;38.03;23.00;;;;;;;1.90;66.02;102016.44;5083244;28;20418;-66
2023/12/03 09:40:33;;;;;;;37.53;22.00;;;;;;;1.87;67.04;102016.75;5072650;28;20075;-68
2023/12/03 09:43:03;;;;;;;36.60;21.65;;;;;;;1.86;66.79;102007.69;5076393;28;20047;-68
2023/12/03 09:45:31;;;;;;;35.47;21.15;;;;;;;1.85;66.97;102010.59;5081415;28;20384;-67
2023/12/03 09:48:01;;;;;;;37.88;23.20;;;;;;;1.86;66.16;102015.91;5075341;28;20031;-66
2023/12/03 09:50:33;;;;;;;35.47;22.00;;;;;;;1.83;66.71;102008.00;5074739;28;20024;-66
2023/12/03 09:53:02;;;;;;;36.60;22.30;;;;;;;1.90;66.38;102011.81;5085297;28;20027;-66
2023/12/03 09:55:27;;;;;;;34.47;21.08;;;;;;;1.89;66.65;102006.50;5072054;28;20145;-66
2023/12/03 09:57:54;;;;;;;35.78;21.50;;;;;;;1.93;66.20;102007.88;5081525;28;20113;-68
2023/12/03 10:00:21;;;;;;;34.10;20.95;;;;;;;1.94;66.37;102006.84;5085163;28;20570;-68
2023/12/03 10:02:51;;;;;;;37.20;22.55;;;;;;;2.00;65.96;102002.56;5075203;28;20039;-67
2023/12/03 10:05:16;;;;;;;35.55;21.40;;;;;;;2.01;65.68;102007.91;5086587;28;20028;-67
2023/12/03 10:07:46;;;;;;;38.92;22.30;;;;;;;2.03;66.02;101997.59;5082972;28;20048;-66
2023/12/03 10:10:13;;;;;;;35.25;20.98;;;;;;;2.03;65.65;101997.59;5081514;28;20124;-67
2023/12/03 10:12:42;;;;;;;36.05;22.58;;;;;;;2.02;66.08;101995.06;5088281;28;20067;-65
2023/12/03 10:15:12;;;;;;;32.63;20.30;;;;;;;2.03;65.10;102000.34;5082284;28;20117;-66
2023/12/03 10:17:38;;;;;;;35.45;20.90;;;;;;;2.06;65.25;101990.94;5083850;28;20039;-67
2023/12/03 10:20:21;;;;;;;32.97;20.65;;;;;;;2.10;65.25;101990.44;5089618;28;20727;-66
2023/12/03 10:22:51;;;;;;;35.78;21.50;;;;;;;2.12;65.48;101982.91;5081131;28;20039;-65
2023/12/03 10:25:28;;;;;;;31.50;19.27;;;;;;;2.15;65.49;101985.28;5077456;28;20040;-66
2023/12/03 10:27:55;;;;;;;32.35;20.05;;;;;;;2.15;65.02;101982.56;5074940;28;20039;-66
2023/12/03 10:30:21;;;;;;;34.17;21.27;;;;;;;2.16;65.26;101983.41;5089869;28;20028;-66
2023/12/03 10:32:46;;;;;;;34.85;20.75;;;;;;;2.17;65.18;101985.16;5087793;28;20070;-67
2023/12/03 10:35:11;;;;;;;32.38;20.50;;;;;;;2.13;64.78;101976.41;5078946;28;20395;-66
2023/12/03 10:37:40;;;;;;;33.75;19.88;;;;;;;2.13;64.85;101976.41;5078045;28;20204;-65
2023/12/03 10:40:07;;;;;;;35.13;20.67;;;;;;;2.14;64.35;101977.25;5078557;28;20060;-65
2023/12/03 10:42:36;;;;;;;34.28;20.40;;;;;;;2.16;64.52;101976.06;5080423;28;20032;-64
2023/12/03 10:45:09;;;;;;;29.75;20.15;;;;;;;2.20;65.11;101957.38;5078160;28;20050;-65
2023/12/03 10:47:36;;;;;;;34.25;20.48;;;;;;;2.25;64.68;101951.41;5072945;28;20055;-64
2023/12/03 10:50:05;;;;;;;32.65;19.83;;;;;;;2.27;64.34;101952.94;5084154;28;20030;-65
2023/12/03 10:52:31;;;;;;;34.42;20.63;;;;;;;2.32;64.01;101949.69;5079413;28;20145;-65
2023/12/03 10:54:57;;;;;;;32.97;20.10;;;;;;;2.29;64.67;101958.28;5071854;28;20041;-67
2023/12/03 10:57:33;;;;;;;33.67;19.80;;;;;;;2.37;63.97;101955.53;5080808;28;20379;-65
2023/12/03 11:00:11;;;;;;;29.42;18.60;;;;;;;2.46;64.27;101954.47;5081840;28;20476;-65
2023/12/03 11:02:45;;;;;;;29.67;18.13;;;;;;;2.52;63.38;101953.81;5074098;28;20032;-65
2023/12/03 11:05:18;;;;;;;33.17;18.85;;;;;;;2.60;63.74;101945.56;5082861;28;20036;-66
2023/12/03 11:07:43;;;;;;;26.02;17.02;;;;;;;2.70;63.30;101946.22;5082443;28;20039;-65
2023/12/03 11:10:10;;;;;;;27.85;18.25;;;;;;;2.75;62.44;101936.59;5076721;28;20472;-67
2023/12/03 11:12:35;;;;;;;30.95;18.73;;;;;;;2.80;62.54;101931.47;5076318;28;20032;-65